Terminal Aerodrome Forecast
Issued by NWS Amarillo, TX

Home | Current Version | Previous Version | Text Only | Print | Product List | Glossary On
Versions: 1 2 3 4 5 6 7 8 9 10 11 12 13 14 15 16 17 18 19 20 21 22 23 24
947
FTUS44 KAMA 252320
TAFAMA
TAF
KAMA 252320Z 2600/2624 VRB04KT P6SM SCT200
     FM260200 15011KT P6SM BKN200
     FM261400 22017KT P6SM BKN200
     FM261600 28019G28KT P6SM BKN200=

USA.gov is the U.S. government's official web portal to all federal, state and local government web resources and services.